createdAt,value
2019-03-03T00:02:29.951Z,3.50
2019-03-03T00:07:54.730Z,3.67
2019-03-03T00:13:19.468Z,3.77
2019-03-03T00:18:44.607Z,3.86
2019-03-03T00:24:10.466Z,3.96
2019-03-03T00:29:35.082Z,4.06
2019-03-03T00:34:59.685Z,4.16
2019-03-03T00:40:33.137Z,4.26
2019-03-03T00:46:07.181Z,4.36
2019-03-03T00:51:36.302Z,4.49
2019-03-03T00:57:11.945Z,4.58
2019-03-03T01:02:51.885Z,4.67
2019-03-03T01:08:31.370Z,4.73
2019-03-03T01:14:19.784Z,4.81
2019-03-03T01:20:19.027Z,4.86
2019-03-03T01:25:42.900Z,4.98
2019-03-03T01:31:07.576Z,5.01
2019-03-03T01:36:31.258Z,5.05
2019-03-03T01:41:55.303Z,5.11
2019-03-03T01:47:20.369Z,5.16
2019-03-03T01:52:44.631Z,5.22
2019-03-03T01:58:09.326Z,5.22
2019-03-03T02:03:35.580Z,5.32
2019-03-03T02:08:59.839Z,5.39
2019-03-03T02:14:25.609Z,5.40
2019-03-03T02:19:49.512Z,5.41
2019-03-03T02:25:14.491Z,5.46
2019-03-03T02:30:40.816Z,5.48
2019-03-03T02:36:05.681Z,5.52
2019-03-03T02:41:30.312Z,5.57
2019-03-03T02:46:54.463Z,5.64
2019-03-03T02:52:19.310Z,5.62
2019-03-03T02:57:43.315Z,5.58
2019-03-03T03:03:10.647Z,5.59
2019-03-03T03:08:54.410Z,5.62
2019-03-03T03:14:33.907Z,5.64
2019-03-03T03:20:21.522Z,5.66
2019-03-03T03:25:52.872Z,5.66
2019-03-03T03:31:37.243Z,5.70
2019-03-03T03:37:06.494Z,5.72
2019-03-03T03:43:05.980Z,5.78
2019-03-03T03:48:48.022Z,5.85
2019-03-03T03:54:30.279Z,5.87
2019-03-03T04:00:06.788Z,5.82
2019-03-03T04:05:47.547Z,5.75
2019-03-03T04:11:17.704Z,5.68
2019-03-03T04:17:10.206Z,5.59
2019-03-03T04:22:51.918Z,5.60
2019-03-03T04:28:31.683Z,5.65
2019-03-03T04:34:02.623Z,5.71
2019-03-03T04:39:50.273Z,5.96
2019-03-03T04:45:20.127Z,6.07
2019-03-03T04:50:58.890Z,6.35
2019-03-03T04:56:32.019Z,6.40
2019-03-03T05:02:03.461Z,6.50
2019-03-03T05:07:36.230Z,6.68
2019-03-03T05:13:16.527Z,6.71
2019-03-03T05:18:44.887Z,6.71
2019-03-03T05:24:08.843Z,6.73
2019-03-03T05:29:32.836Z,6.73
2019-03-03T05:34:56.690Z,6.78
2019-03-03T05:40:20.534Z,6.83
2019-03-03T05:45:45.027Z,6.77
2019-03-03T05:51:09.726Z,6.91
2019-03-03T05:56:33.578Z,6.88
2019-03-03T06:01:58.399Z,6.96
2019-03-03T06:07:23.338Z,6.94
2019-03-03T06:12:47.943Z,6.99
2019-03-03T06:18:12.332Z,7.25
2019-03-03T06:23:36.058Z,7.30
2019-03-03T06:29:00.701Z,7.46
2019-03-03T06:34:25.804Z,7.63
2019-03-03T06:39:49.641Z,7.80
2019-03-03T06:45:14.712Z,7.83
2019-03-03T06:50:39.137Z,8.00
2019-03-03T06:56:03.016Z,8.13
2019-03-03T07:01:27.000Z,8.18
2019-03-03T07:06:51.970Z,8.24
2019-03-03T07:12:16.422Z,8.38
2019-03-03T07:17:41.217Z,8.55
2019-03-03T07:23:05.283Z,8.69
2019-03-03T07:28:29.747Z,8.83
2019-03-03T07:33:57.336Z,8.97
2019-03-03T07:39:21.128Z,8.98
2019-03-03T07:44:45.738Z,9.15
2019-03-03T07:50:09.995Z,9.30
2019-03-03T07:55:34.612Z,9.37
2019-03-03T08:00:58.448Z,9.48
2019-03-03T08:06:23.185Z,9.61
2019-03-03T08:11:47.976Z,9.69
2019-03-03T08:17:12.400Z,9.76
2019-03-03T08:22:36.137Z,9.95
2019-03-03T08:28:00.587Z,10.04
2019-03-03T08:33:25.357Z,10.31
2019-03-03T08:38:50.473Z,10.45
2019-03-03T08:44:22.445Z,10.46
2019-03-03T08:49:52.936Z,10.53
2019-03-03T08:55:35.905Z,10.62
2019-03-03T09:01:23.032Z,10.62
2019-03-03T09:06:55.616Z,10.61
2019-03-03T09:12:41.832Z,10.43
2019-03-03T09:18:15.164Z,10.12
2019-03-03T09:23:57.805Z,10.36
2019-03-03T09:29:30.480Z,10.48
2019-03-03T09:35:13.745Z,10.54
2019-03-03T09:41:03.610Z,10.58
2019-03-03T09:46:52.283Z,10.71
2019-03-03T09:52:23.842Z,10.76
2019-03-03T09:58:13.949Z,10.81
2019-03-03T10:04:05.831Z,11.07
2019-03-03T10:09:52.672Z,11.16
2019-03-03T10:15:37.661Z,10.83
2019-03-03T10:21:14.151Z,10.76
2019-03-03T10:26:53.790Z,10.79
2019-03-03T10:32:34.572Z,10.76
2019-03-03T10:38:16.906Z,10.97
2019-03-03T10:43:53.405Z,11.09
2019-03-03T10:49:39.293Z,11.24
2019-03-03T10:55:13.938Z,11.28
2019-03-03T11:00:57.739Z,11.13
2019-03-03T11:06:31.795Z,10.90
2019-03-03T11:12:13.242Z,10.81
2019-03-03T11:17:50.738Z,11.04
2019-03-03T11:23:41.099Z,11.23
2019-03-03T11:29:29.526Z,11.30
2019-03-03T11:35:14.225Z,11.40
2019-03-03T11:40:44.977Z,11.59
2019-03-03T11:46:21.689Z,11.57
2019-03-03T11:52:05.617Z,11.58
2019-03-03T11:57:58.445Z,11.55
2019-03-03T12:03:40.293Z,11.51
2019-03-03T12:09:22.827Z,11.40
2019-03-03T12:15:07.388Z,11.05
2019-03-03T12:20:48.562Z,10.79
2019-03-03T12:26:38.499Z,10.72
2019-03-03T12:32:19.603Z,10.65
2019-03-03T12:38:05.901Z,10.69
2019-03-03T12:43:39.773Z,10.79
2019-03-03T12:49:12.277Z,10.73
2019-03-03T12:54:55.880Z,10.72
2019-03-03T13:00:26.266Z,10.76
2019-03-03T13:06:08.661Z,10.85
2019-03-03T13:11:45.582Z,11.01
2019-03-03T13:17:25.946Z,11.00
2019-03-03T13:23:18.020Z,11.11
2019-03-03T13:29:00.217Z,11.12
2019-03-03T13:34:41.036Z,11.24
2019-03-03T13:40:21.787Z,11.33
2019-03-03T13:45:45.428Z,11.49
2019-03-03T13:51:10.023Z,11.54
2019-03-03T13:56:34.569Z,11.54
2019-03-03T14:02:00.429Z,11.58
2019-03-03T14:07:25.146Z,11.65
2019-03-03T14:12:49.066Z,11.66
2019-03-03T14:18:13.273Z,11.69
2019-03-03T14:23:40.400Z,11.59
2019-03-03T14:29:04.533Z,11.56
2019-03-03T14:34:28.174Z,11.50
2019-03-03T14:39:52.611Z,11.29
2019-03-03T14:45:17.397Z,11.09
2019-03-03T14:50:41.890Z,10.91
2019-03-03T14:56:06.863Z,10.78
2019-03-03T15:01:32.679Z,10.68
2019-03-03T15:06:57.880Z,10.69
2019-03-03T15:12:22.684Z,10.64
2019-03-03T15:17:47.401Z,10.67
2019-03-03T15:23:11.501Z,10.59
2019-03-03T15:28:35.330Z,10.35
2019-03-03T15:34:00.074Z,10.12
2019-03-03T15:39:24.893Z,9.94
2019-03-03T15:44:49.240Z,9.78
2019-03-03T15:50:13.326Z,9.75
2019-03-03T15:55:37.153Z,9.64
2019-03-03T16:01:02.699Z,9.56
2019-03-03T16:06:27.753Z,9.49
2019-03-03T16:11:51.539Z,9.45
2019-03-03T16:17:15.344Z,9.44
2019-03-03T16:22:40.038Z,9.34
2019-03-03T16:28:04.568Z,9.40
2019-03-03T16:33:28.521Z,9.29
2019-03-03T16:38:52.147Z,9.28
2019-03-03T16:44:16.014Z,9.22
2019-03-03T16:49:40.812Z,9.18
2019-03-03T16:55:05.581Z,9.17
2019-03-03T17:00:30.535Z,9.22
2019-03-03T17:05:54.166Z,9.27
2019-03-03T17:11:19.060Z,9.19
2019-03-03T17:16:43.393Z,9.21
2019-03-03T17:22:08.280Z,9.27
2019-03-03T17:27:33.070Z,9.20
2019-03-03T17:32:57.138Z,9.24
2019-03-03T17:38:21.641Z,9.28
2019-03-03T17:43:46.373Z,9.25
2019-03-03T17:49:11.150Z,9.32
2019-03-03T17:54:35.788Z,9.30
2019-03-03T17:59:59.761Z,9.30
2019-03-03T18:05:24.350Z,9.33
2019-03-03T18:10:48.952Z,9.35
2019-03-03T18:16:13.880Z,9.45
2019-03-03T18:21:39.007Z,9.48
2019-03-03T18:27:04.805Z,9.49
2019-03-03T18:32:29.307Z,9.53
2019-03-03T18:37:55.245Z,9.52
2019-03-03T18:43:20.102Z,9.58
2019-03-03T18:48:44.888Z,9.55
2019-03-03T18:54:08.610Z,9.54
2019-03-03T18:59:35.145Z,9.57
2019-03-03T19:04:59.512Z,9.54
2019-03-03T19:10:25.339Z,9.53
2019-03-03T19:15:50.324Z,9.57
2019-03-03T19:21:15.144Z,9.59
2019-03-03T19:26:38.843Z,9.52
2019-03-03T19:32:04.514Z,9.51
2019-03-03T19:37:28.352Z,9.50
2019-03-03T19:42:54.455Z,9.48
2019-03-03T19:48:19.094Z,9.46
2019-03-03T19:53:43.893Z,9.53
2019-03-03T19:59:08.529Z,9.48
2019-03-03T20:04:33.040Z,9.56
2019-03-03T20:09:58.112Z,9.47
2019-03-03T20:15:21.964Z,9.59
2019-03-03T20:20:45.653Z,9.59
2019-03-03T20:26:09.413Z,9.57
2019-03-03T20:31:35.657Z,9.61
2019-03-03T20:36:59.320Z,9.75
2019-03-03T20:42:24.053Z,9.72
2019-03-03T20:47:49.336Z,9.77
2019-03-03T20:53:14.383Z,9.82
2019-03-03T20:58:39.099Z,9.79
2019-03-03T21:04:04.076Z,9.80
2019-03-03T21:09:27.686Z,9.77
2019-03-03T21:14:51.761Z,9.86
2019-03-03T21:20:16.894Z,9.88
2019-03-03T21:25:41.077Z,9.88
2019-03-03T21:31:04.841Z,9.83
2019-03-03T21:36:29.504Z,9.86
2019-03-03T21:41:54.096Z,9.88
2019-03-03T21:47:17.950Z,9.90
2019-03-03T21:52:41.674Z,9.88
2019-03-03T21:58:07.005Z,9.87
2019-03-03T22:03:31.144Z,9.90
2019-03-03T22:08:55.031Z,9.90
2019-03-03T22:14:19.050Z,9.95
2019-03-03T22:19:43.827Z,9.86
2019-03-03T22:25:08.724Z,9.71
2019-03-03T22:30:32.993Z,9.47
2019-03-03T22:35:57.004Z,9.32
2019-03-03T22:41:20.785Z,9.23
2019-03-03T22:46:44.913Z,9.14
2019-03-03T22:52:09.545Z,9.04
2019-03-03T22:57:34.254Z,9.00
2019-03-03T23:02:59.051Z,9.01
2019-03-03T23:08:40.982Z,9.03
2019-03-03T23:14:29.446Z,9.21
2019-03-03T23:20:25.331Z,9.22
2019-03-03T23:25:49.819Z,9.33
2019-03-03T23:31:14.617Z,9.39
2019-03-03T23:36:39.178Z,9.46
2019-03-03T23:42:04.021Z,9.50
2019-03-03T23:47:27.881Z,9.48
2019-03-03T23:52:52.536Z,9.45
2019-03-03T23:58:16.183Z,9.52
